createdAt,value
2023-07-16T00:02:01.187Z,17.79
2023-07-16T00:05:08.445Z,17.77
2023-07-16T00:08:07.974Z,17.73
2023-07-16T00:11:14.013Z,17.71
2023-07-16T00:14:20.487Z,17.68
2023-07-16T00:17:27.610Z,17.65
2023-07-16T00:20:33.957Z,17.62
2023-07-16T00:23:39.495Z,17.59
2023-07-16T00:26:45.850Z,17.56
2023-07-16T00:29:51.922Z,17.53
2023-07-16T00:32:58.115Z,17.51
2023-07-16T00:36:05.776Z,17.51
2023-07-16T00:39:11.658Z,17.49
2023-07-16T00:42:17.898Z,17.46
2023-07-16T00:45:26.310Z,17.42
2023-07-16T00:48:32.685Z,17.40
2023-07-16T00:51:40.072Z,17.36
2023-07-16T00:54:46.360Z,17.32
2023-07-16T00:57:54.863Z,17.26
2023-07-16T01:01:01.449Z,17.21
2023-07-16T01:04:07.599Z,17.16
2023-07-16T01:07:15.504Z,17.11
2023-07-16T01:10:22.382Z,17.05
2023-07-16T01:13:28.033Z,16.96
2023-07-16T01:16:38.752Z,16.90
2023-07-16T01:19:44.860Z,16.86
2023-07-16T01:22:58.703Z,16.78
2023-07-16T01:26:24.527Z,16.74
2023-07-16T01:29:46.779Z,16.73
2023-07-16T01:32:54.125Z,16.68
2023-07-16T01:36:02.082Z,16.64
2023-07-16T01:39:08.955Z,16.60
2023-07-16T01:42:16.960Z,16.56
2023-07-16T01:45:24.463Z,16.50
2023-07-16T01:48:49.758Z,16.46
2023-07-16T01:51:56.272Z,16.42
2023-07-16T01:55:02.834Z,16.35
2023-07-16T01:58:10.956Z,16.31
2023-07-16T02:01:18.136Z,16.29
2023-07-16T02:04:24.171Z,16.29
2023-07-16T02:07:32.929Z,16.31
2023-07-16T02:10:39.585Z,16.35
2023-07-16T02:13:46.055Z,16.34
2023-07-16T02:16:53.232Z,16.36
2023-07-16T02:19:59.527Z,16.38
2023-07-16T02:23:05.081Z,16.42
2023-07-16T02:26:10.749Z,16.48
2023-07-16T02:29:16.769Z,16.54
2023-07-16T02:32:23.583Z,16.60
2023-07-16T02:35:31.653Z,16.64
2023-07-16T02:38:39.662Z,16.68
2023-07-16T02:41:45.398Z,16.70
2023-07-16T02:44:52.638Z,16.74
2023-07-16T02:47:59.179Z,16.79
2023-07-16T02:51:05.936Z,16.84
2023-07-16T02:54:12.511Z,16.88
2023-07-16T02:57:19.597Z,16.94
2023-07-16T03:00:25.773Z,17.00
2023-07-16T03:03:34.882Z,17.06
2023-07-16T03:06:38.002Z,17.14
2023-07-16T03:09:44.553Z,17.21
2023-07-16T03:12:50.923Z,17.27
2023-07-16T03:15:57.313Z,17.33
2023-07-16T03:19:04.323Z,17.40
2023-07-16T03:22:10.671Z,17.44
2023-07-16T03:25:17.827Z,17.50
2023-07-16T03:28:23.507Z,17.54
2023-07-16T03:31:30.429Z,17.59
2023-07-16T03:34:36.960Z,17.67
2023-07-16T03:37:43.525Z,17.72
2023-07-16T03:40:50.713Z,17.77
2023-07-16T03:43:58.136Z,17.84
2023-07-16T03:47:05.509Z,17.90
2023-07-16T03:50:11.711Z,17.96
2023-07-16T03:53:19.076Z,18.02
2023-07-16T03:56:25.726Z,18.04
2023-07-16T03:59:31.840Z,18.08
2023-07-16T04:02:39.606Z,18.14
2023-07-16T04:05:48.122Z,18.20
2023-07-16T04:08:54.904Z,18.30
2023-07-16T04:12:03.639Z,18.39
2023-07-16T04:15:13.017Z,18.45
2023-07-16T04:18:18.411Z,18.54
2023-07-16T04:21:23.208Z,18.62
2023-07-16T04:24:29.441Z,18.68
2023-07-16T04:27:36.364Z,18.78
2023-07-16T04:30:45.424Z,18.84
2023-07-16T04:33:51.578Z,18.91
2023-07-16T04:36:59.338Z,18.99
2023-07-16T04:40:05.586Z,19.07
2023-07-16T04:43:12.565Z,19.18
2023-07-16T04:46:20.322Z,19.25
2023-07-16T04:49:26.597Z,19.34
2023-07-16T04:52:33.567Z,19.45
2023-07-16T04:55:40.498Z,19.54
2023-07-16T04:58:47.452Z,19.63
2023-07-16T05:01:53.631Z,19.69
2023-07-16T05:04:58.844Z,19.76
2023-07-16T05:08:04.105Z,19.80
2023-07-16T05:11:11.079Z,19.87
2023-07-16T05:14:15.867Z,19.97
2023-07-16T05:17:20.405Z,20.07
2023-07-16T05:20:27.098Z,20.16
2023-07-16T05:23:34.892Z,20.24
2023-07-16T05:26:40.589Z,20.33
2023-07-16T05:29:46.929Z,20.42
2023-07-16T05:32:53.833Z,20.52
2023-07-16T05:36:03.945Z,20.62
2023-07-16T05:39:10.456Z,20.72
2023-07-16T05:42:17.718Z,20.83
2023-07-16T05:45:24.626Z,20.94
2023-07-16T05:48:31.446Z,21.05
2023-07-16T05:51:37.735Z,21.14
2023-07-16T05:54:44.552Z,21.23
2023-07-16T05:57:51.514Z,21.29
2023-07-16T06:00:58.280Z,21.39
2023-07-16T06:04:05.918Z,21.49
2023-07-16T06:07:13.177Z,21.60
2023-07-16T06:10:20.878Z,21.70
2023-07-16T06:13:27.254Z,21.79
2023-07-16T06:16:34.418Z,21.89
2023-07-16T06:19:41.323Z,21.96
2023-07-16T06:22:47.832Z,22.03
2023-07-16T06:25:56.540Z,22.13
2023-07-16T06:29:02.664Z,22.23
2023-07-16T06:32:13.917Z,22.34
2023-07-16T06:35:20.745Z,22.42
2023-07-16T06:38:29.653Z,22.49
2023-07-16T06:41:34.499Z,22.56
2023-07-16T06:44:41.605Z,22.60
2023-07-16T06:47:47.527Z,22.67
2023-07-16T06:50:55.540Z,22.72
2023-07-16T06:54:00.850Z,22.79
2023-07-16T06:57:06.539Z,22.85
2023-07-16T07:00:12.716Z,22.90
2023-07-16T07:03:19.768Z,22.95
2023-07-16T07:06:26.461Z,23.02
2023-07-16T07:09:33.778Z,23.09
2023-07-16T07:12:43.604Z,23.14
2023-07-16T07:15:50.967Z,23.20
2023-07-16T07:18:57.674Z,23.26
2023-07-16T07:22:06.497Z,23.33
2023-07-16T07:25:12.757Z,23.40
2023-07-16T07:28:20.160Z,23.46
2023-07-16T07:31:27.041Z,23.51
2023-07-16T07:34:36.510Z,23.56
2023-07-16T07:37:42.739Z,23.61
2023-07-16T07:40:49.724Z,23.64
2023-07-16T07:43:57.120Z,23.68
2023-07-16T07:47:03.974Z,23.73
2023-07-16T07:50:09.425Z,23.80
2023-07-16T07:53:15.107Z,23.88
2023-07-16T07:56:21.802Z,23.93
2023-07-16T07:59:27.314Z,23.96
2023-07-16T08:02:34.118Z,24.02
2023-07-16T08:05:41.487Z,24.09
2023-07-16T08:08:48.957Z,24.14
2023-07-16T08:11:54.951Z,24.20
2023-07-16T08:15:04.002Z,24.27
2023-07-16T08:18:11.945Z,24.35
2023-07-16T08:21:18.448Z,24.40
2023-07-16T08:24:25.111Z,24.46
2023-07-16T08:27:30.631Z,24.60
2023-07-16T08:30:36.229Z,24.75
2023-07-16T08:33:43.748Z,24.87
2023-07-16T08:36:52.463Z,24.97
2023-07-16T08:39:59.444Z,25.08
2023-07-16T08:43:06.732Z,25.11
2023-07-16T08:46:14.039Z,25.15
2023-07-16T08:49:21.087Z,25.25
2023-07-16T08:52:26.944Z,25.33
2023-07-16T08:55:34.038Z,25.45
2023-07-16T08:58:41.849Z,25.46
2023-07-16T09:01:48.463Z,25.50
2023-07-16T09:04:57.067Z,25.60
2023-07-16T09:08:03.704Z,25.69
2023-07-16T09:11:12.028Z,25.77
2023-07-16T09:14:19.341Z,25.87
2023-07-16T09:17:25.970Z,25.78
2023-07-16T09:20:33.905Z,25.62
2023-07-16T09:23:41.256Z,25.60
2023-07-16T09:26:50.171Z,25.67
2023-07-16T09:29:58.010Z,25.80
2023-07-16T09:33:05.207Z,25.88
2023-07-16T09:36:11.064Z,25.94
2023-07-16T09:39:16.697Z,26.01
2023-07-16T09:42:22.589Z,26.07
2023-07-16T09:45:35.032Z,26.13
2023-07-16T09:48:41.262Z,26.22
2023-07-16T09:51:48.230Z,26.29
2023-07-16T09:54:54.353Z,26.25
2023-07-16T09:58:00.858Z,26.19
2023-07-16T10:01:08.865Z,26.12
2023-07-16T10:04:14.884Z,26.19
2023-07-16T10:07:22.947Z,26.30
2023-07-16T10:10:29.917Z,26.44
2023-07-16T10:13:37.042Z,26.50
2023-07-16T10:16:46.153Z,26.54
2023-07-16T10:20:21.604Z,26.60
2023-07-16T10:23:31.457Z,26.68
2023-07-16T10:26:43.649Z,26.83
2023-07-16T10:29:48.864Z,26.96
2023-07-16T10:32:54.111Z,27.06
2023-07-16T10:36:02.865Z,27.16
2023-07-16T10:39:08.519Z,27.20
2023-07-16T10:42:14.623Z,27.26
2023-07-16T10:45:21.432Z,27.32
2023-07-16T10:48:26.524Z,27.51
2023-07-16T10:51:31.935Z,27.59
2023-07-16T10:54:38.114Z,27.60
2023-07-16T10:57:46.209Z,27.60
2023-07-16T11:00:59.620Z,27.67
2023-07-16T11:04:06.629Z,27.69
2023-07-16T11:07:12.569Z,27.72
2023-07-16T11:10:18.251Z,27.78
2023-07-16T11:13:25.124Z,27.75
2023-07-16T11:16:33.883Z,27.82
2023-07-16T11:19:40.853Z,27.87
2023-07-16T11:22:46.229Z,27.94
2023-07-16T11:25:52.956Z,27.92
2023-07-16T11:28:58.807Z,27.95
2023-07-16T11:32:08.317Z,28.05
2023-07-16T11:35:16.151Z,28.13
2023-07-16T11:38:21.535Z,28.23
2023-07-16T11:41:29.135Z,28.42
2023-07-16T11:44:35.564Z,28.53
2023-07-16T11:47:43.662Z,28.62
2023-07-16T11:50:43.497Z,28.53
2023-07-16T11:53:42.891Z,28.37
2023-07-16T11:56:50.087Z,28.25
2023-07-16T11:59:56.153Z,28.20
2023-07-16T12:03:03.719Z,28.13
2023-07-16T12:06:10.226Z,28.09
2023-07-16T12:09:17.423Z,28.11
2023-07-16T12:12:24.323Z,28.13
2023-07-16T12:15:29.388Z,28.22
2023-07-16T12:18:35.746Z,28.33
2023-07-16T12:21:40.836Z,28.42
2023-07-16T12:24:48.087Z,28.38
2023-07-16T12:27:56.321Z,28.23
2023-07-16T12:31:02.168Z,28.11
2023-07-16T12:34:11.727Z,27.98
2023-07-16T12:37:18.240Z,27.94
2023-07-16T12:40:24.914Z,27.89
2023-07-16T12:43:34.090Z,27.83
2023-07-16T12:46:39.317Z,27.77
2023-07-16T12:49:45.900Z,27.83
2023-07-16T12:52:53.213Z,27.97
2023-07-16T12:56:00.110Z,28.05
2023-07-16T12:59:06.169Z,28.16
2023-07-16T13:02:11.920Z,28.26
2023-07-16T13:05:20.131Z,28.42
2023-07-16T13:08:27.832Z,28.55
2023-07-16T13:11:33.746Z,28.61
2023-07-16T13:14:40.261Z,28.67
2023-07-16T13:17:46.322Z,28.64
2023-07-16T13:20:52.657Z,28.58
2023-07-16T13:24:00.849Z,28.48
2023-07-16T13:27:08.611Z,28.41
2023-07-16T13:30:14.851Z,28.41
2023-07-16T13:33:20.311Z,28.45
2023-07-16T13:36:28.403Z,28.43
2023-07-16T13:39:36.435Z,28.47
2023-07-16T13:42:44.052Z,28.61
2023-07-16T13:45:50.755Z,28.70
2023-07-16T13:48:59.469Z,28.73
2023-07-16T13:52:05.932Z,28.83
2023-07-16T13:55:13.272Z,28.92
2023-07-16T13:58:20.209Z,28.81
2023-07-16T14:01:27.819Z,28.72
2023-07-16T14:04:34.170Z,28.65
2023-07-16T14:07:41.343Z,28.69
2023-07-16T14:10:47.880Z,28.74
2023-07-16T14:13:57.784Z,28.82
2023-07-16T14:17:04.558Z,28.83
2023-07-16T14:20:12.062Z,28.83
2023-07-16T14:23:19.026Z,28.76
2023-07-16T14:26:25.055Z,28.68
2023-07-16T14:29:32.377Z,28.56
2023-07-16T14:32:39.312Z,28.52
2023-07-16T14:35:48.997Z,28.53
2023-07-16T14:38:49.447Z,28.50
2023-07-16T14:41:56.148Z,28.29
2023-07-16T14:45:02.279Z,28.14
2023-07-16T14:48:09.781Z,28.04
2023-07-16T14:51:16.778Z,27.99
2023-07-16T14:54:23.306Z,28.00
2023-07-16T14:57:30.411Z,27.97
2023-07-16T15:00:37.899Z,27.96
2023-07-16T15:03:48.410Z,27.99
2023-07-16T15:06:58.967Z,28.03
2023-07-16T15:10:09.000Z,28.07
2023-07-16T15:13:15.274Z,28.14
2023-07-16T15:16:21.647Z,28.18
2023-07-16T15:19:29.001Z,28.16
2023-07-16T15:22:35.465Z,28.14
2023-07-16T15:25:41.641Z,28.12
2023-07-16T15:28:50.000Z,28.06
2023-07-16T15:31:56.536Z,27.97
2023-07-16T15:35:02.175Z,27.91
2023-07-16T15:38:11.923Z,27.89
2023-07-16T15:41:19.634Z,27.84
2023-07-16T15:44:28.146Z,27.80
2023-07-16T15:47:34.765Z,27.75
2023-07-16T15:50:42.198Z,27.69
2023-07-16T15:53:50.123Z,27.62
2023-07-16T15:56:58.152Z,27.59
2023-07-16T16:00:06.053Z,27.61
2023-07-16T16:03:12.570Z,27.72
2023-07-16T16:06:20.225Z,27.74
2023-07-16T16:09:26.824Z,27.68
2023-07-16T16:12:33.145Z,27.63
2023-07-16T16:15:41.453Z,27.58
2023-07-16T16:18:46.996Z,27.52
2023-07-16T16:21:53.376Z,27.44
2023-07-16T16:25:02.229Z,27.39
2023-07-16T16:28:09.731Z,27.43
2023-07-16T16:31:15.208Z,27.36
2023-07-16T16:34:20.626Z,27.27
2023-07-16T16:37:26.656Z,27.12
2023-07-16T16:40:32.414Z,26.96
2023-07-16T16:43:39.690Z,26.84
2023-07-16T16:46:47.536Z,26.69
2023-07-16T16:49:52.064Z,26.56
2023-07-16T16:53:01.134Z,26.42
2023-07-16T16:56:07.221Z,26.31
2023-07-16T16:59:12.221Z,26.18
2023-07-16T17:02:18.773Z,26.07
2023-07-16T17:05:25.643Z,25.97
2023-07-16T17:08:33.293Z,25.88
2023-07-16T17:11:39.003Z,25.77
2023-07-16T17:14:49.323Z,25.66
2023-07-16T17:17:58.866Z,25.55
2023-07-16T17:21:04.607Z,25.43
2023-07-16T17:24:09.568Z,25.33
2023-07-16T17:27:17.530Z,25.19
2023-07-16T17:30:24.304Z,25.08
2023-07-16T17:33:30.005Z,24.95
2023-07-16T17:36:35.838Z,24.83
2023-07-16T17:39:42.441Z,24.70
2023-07-16T17:42:49.233Z,24.58
2023-07-16T17:45:55.791Z,24.44
2023-07-16T17:49:03.671Z,24.31
2023-07-16T17:52:11.233Z,24.14
2023-07-16T17:55:18.470Z,23.99
2023-07-16T17:58:25.466Z,23.79
2023-07-16T18:01:34.497Z,23.63
2023-07-16T18:04:41.769Z,23.48
2023-07-16T18:07:48.344Z,23.32
2023-07-16T18:10:54.451Z,23.17
2023-07-16T18:14:01.890Z,22.99
2023-07-16T18:17:08.738Z,22.82
2023-07-16T18:20:18.708Z,22.66
2023-07-16T18:23:24.365Z,22.52
2023-07-16T18:26:30.831Z,22.40
2023-07-16T18:29:39.378Z,22.25
2023-07-16T18:32:45.650Z,22.10
2023-07-16T18:35:52.016Z,21.98
2023-07-16T18:38:58.490Z,21.86
2023-07-16T18:42:05.263Z,21.74
2023-07-16T18:45:13.879Z,21.62
2023-07-16T18:48:21.677Z,21.49
2023-07-16T18:51:28.543Z,21.38
2023-07-16T18:54:34.023Z,21.24
2023-07-16T18:57:39.975Z,21.11
2023-07-16T19:00:46.437Z,20.99
2023-07-16T19:03:54.386Z,20.87
2023-07-16T19:07:02.071Z,20.76
2023-07-16T19:10:09.046Z,20.62
2023-07-16T19:13:15.002Z,20.50
2023-07-16T19:16:22.960Z,20.39
2023-07-16T19:19:28.218Z,20.29
2023-07-16T19:22:37.188Z,20.21
2023-07-16T19:25:43.779Z,20.15
2023-07-16T19:28:49.796Z,20.10
2023-07-16T19:31:57.545Z,20.05
2023-07-16T19:35:03.330Z,20.01
2023-07-16T19:38:10.984Z,19.98
2023-07-16T19:41:20.809Z,19.95
2023-07-16T19:44:27.270Z,19.90
2023-07-16T19:47:33.148Z,19.85
2023-07-16T19:50:39.789Z,19.75
2023-07-16T19:53:44.498Z,19.62
2023-07-16T19:56:50.681Z,19.54
2023-07-16T19:59:57.190Z,19.48
2023-07-16T20:02:59.773Z,19.44
2023-07-16T20:05:53.940Z,19.37
2023-07-16T20:09:00.720Z,19.34
2023-07-16T20:12:09.084Z,19.26
2023-07-16T20:15:15.186Z,19.20
2023-07-16T20:18:22.660Z,19.12
2023-07-16T20:21:32.846Z,19.06
2023-07-16T20:24:39.516Z,19.03
2023-07-16T20:27:45.680Z,18.97
2023-07-16T20:30:52.504Z,18.93
2023-07-16T20:33:59.489Z,18.88
2023-07-16T20:37:05.402Z,18.85
2023-07-16T20:40:13.925Z,18.80
2023-07-16T20:43:23.556Z,18.73
2023-07-16T20:46:30.431Z,18.67
2023-07-16T20:49:37.627Z,18.63
2023-07-16T20:52:44.009Z,18.58
2023-07-16T20:55:52.832Z,18.54
2023-07-16T20:59:00.523Z,18.48
2023-07-16T21:02:07.655Z,18.44
2023-07-16T21:05:14.380Z,18.39
2023-07-16T21:08:21.368Z,18.34
2023-07-16T21:11:26.928Z,18.30
2023-07-16T21:14:33.804Z,18.25
2023-07-16T21:17:40.407Z,18.21
2023-07-16T21:20:47.681Z,18.16
2023-07-16T21:23:56.705Z,18.10
2023-07-16T21:27:02.646Z,18.04
2023-07-16T21:30:09.237Z,18.01
2023-07-16T21:33:16.332Z,17.99
2023-07-16T21:36:22.278Z,17.96
2023-07-16T21:39:28.645Z,17.91
2023-07-16T21:42:35.425Z,17.85
2023-07-16T21:45:41.786Z,17.80
2023-07-16T21:48:48.277Z,17.78
2023-07-16T21:51:55.191Z,17.76
2023-07-16T21:55:03.064Z,17.74
2023-07-16T21:58:07.992Z,17.71
2023-07-16T22:01:15.714Z,17.67
2023-07-16T22:04:21.551Z,17.62
2023-07-16T22:07:28.938Z,17.60
2023-07-16T22:10:36.522Z,17.55
2023-07-16T22:13:42.581Z,17.49
2023-07-16T22:16:49.729Z,17.44
2023-07-16T22:19:50.912Z,17.40
2023-07-16T22:22:57.669Z,17.36
2023-07-16T22:26:04.481Z,17.29
2023-07-16T22:29:12.992Z,17.25
2023-07-16T22:32:19.620Z,17.23
2023-07-16T22:35:28.073Z,17.19
2023-07-16T22:38:32.930Z,17.13
2023-07-16T22:41:39.291Z,17.10
2023-07-16T22:44:45.665Z,17.07
2023-07-16T22:47:53.183Z,17.03
2023-07-16T22:50:59.732Z,17.00
2023-07-16T22:54:07.729Z,16.97
2023-07-16T22:57:12.671Z,16.94
2023-07-16T23:00:19.549Z,16.93
2023-07-16T23:03:26.032Z,16.92
2023-07-16T23:06:33.014Z,16.89
2023-07-16T23:09:39.906Z,16.86
2023-07-16T23:12:46.243Z,16.85
2023-07-16T23:15:53.925Z,16.83
2023-07-16T23:19:01.053Z,16.78
2023-07-16T23:22:07.603Z,16.76
2023-07-16T23:25:14.988Z,16.75
2023-07-16T23:28:21.152Z,16.73
2023-07-16T23:31:27.133Z,16.73
2023-07-16T23:34:33.556Z,16.74
2023-07-16T23:37:39.872Z,16.73
2023-07-16T23:40:46.755Z,16.75
2023-07-16T23:43:54.535Z,16.74
2023-07-16T23:47:01.423Z,16.72
2023-07-16T23:50:08.502Z,16.68
2023-07-16T23:53:14.734Z,16.65
2023-07-16T23:56:22.488Z,16.60
2023-07-16T23:59:29.464Z,16.55
